Time;durP1;ratioP1;P1;durP2;ratioP2;P2;SDS_P1;SDS_P2;PMS_P1;PMS_P2;Temp;Humidity;BMP_temperature;BMP_pressure;BME280_temperature;BME280_humidity;BME280_pressure;Samples;Min_cycle;Max_cycle;Signal;HPM_P1;HPM_P2
2022/11/01 00:02:00;;;;;;;11.68;10.15;;;;;;;14.68;100.00;96347.63;5096042;28;20536;-46
2022/11/01 00:04:28;;;;;;;87.47;11.07;;;;;;;13.80;100.00;96380.34;5080390;28;20461;-47
2022/11/01 00:06:58;;;;;;;23.25;7.50;;;;;;;13.21;100.00;96385.75;5090254;28;20087;-45
2022/11/01 00:09:26;;;;;;;35.13;8.43;;;;;;;14.00;100.00;96381.66;5090130;28;20088;-47
2022/11/01 00:11:55;;;;;;;43.20;11.05;;;;;;;14.17;100.00;96384.25;5091067;28;20622;-47
2022/11/01 00:14:23;;;;;;;40.08;11.82;;;;;;;13.87;100.00;96385.81;5089995;28;20079;-45
2022/11/01 00:16:52;;;;;;;24.33;11.90;;;;;;;14.57;100.00;96393.97;5089735;28;20435;-47
2022/11/01 00:19:20;;;;;;;31.08;13.30;;;;;;;14.23;100.00;96402.97;5090187;28;20067;-47
2022/11/01 00:21:49;;;;;;;48.80;16.10;;;;;;;14.24;100.00;96393.19;5101281;28;20076;-46
2022/11/01 00:24:19;;;;;;;20.65;13.57;;;;;;;14.44;100.00;96390.97;5110126;28;20079;-45
2022/11/01 00:26:47;;;;;;;54.63;15.85;;;;;;;14.46;100.00;96379.22;5099298;28;20051;-45
2022/11/01 00:29:20;;;;;;;33.70;16.48;;;;;;;14.19;100.00;96369.84;5106521;28;20051;-44
2022/11/01 00:31:49;;;;;;;29.90;15.30;;;;;;;14.32;100.00;96381.75;5098867;28;20075;-44
2022/11/01 00:34:17;;;;;;;36.15;14.40;;;;;;;14.39;100.00;96394.16;5089806;28;20083;-50
2022/11/01 00:36:46;;;;;;;33.33;13.63;;;;;;;14.41;100.00;96389.50;5080359;28;20078;-48
2022/11/01 00:39:14;;;;;;;43.08;12.73;;;;;;;14.39;100.00;96383.53;5109685;28;20067;-45
2022/11/01 00:41:44;;;;;;;38.70;12.48;;;;;;;14.21;100.00;96391.72;5088387;28;20281;-46
2022/11/01 00:44:13;;;;;;;60.07;13.47;;;;;;;14.40;100.00;96387.03;5109593;28;20079;-46
2022/11/01 00:46:41;;;;;;;50.03;12.48;;;;;;;14.13;100.00;96380.28;5101093;28;20485;-46
2022/11/01 00:49:09;;;;;;;67.90;13.05;;;;;;;13.72;100.00;96381.16;5090191;28;20080;-44
2022/11/01 00:51:38;;;;;;;60.53;14.05;;;;;;;13.14;100.00;96383.88;5089188;28;20544;-46
2022/11/01 00:54:06;;;;;;;43.35;13.20;;;;;;;13.11;100.00;96382.41;5089365;28;20806;-43
2022/11/01 00:56:34;;;;;;;40.83;14.93;;;;;;;12.39;100.00;96383.75;5089303;28;20067;-43
2022/11/01 00:59:05;;;;;;;44.58;12.48;;;;;;;12.63;100.00;96383.91;5089791;28;20075;-47
2022/11/01 01:01:33;;;;;;;34.22;13.13;;;;;;;12.89;100.00;96375.88;5095897;28;20086;-48
2022/11/01 01:04:02;;;;;;;36.17;12.88;;;;;;;12.66;100.00;96370.34;5105696;28;20090;-46
2022/11/01 01:06:30;;;;;;;25.15;12.65;;;;;;;12.63;100.00;96373.31;5089157;28;20094;-44
2022/11/01 01:08:59;;;;;;;29.73;14.18;;;;;;;12.67;100.00;96369.38;5089274;28;20079;-46
2022/11/01 01:11:28;;;;;;;54.58;15.27;;;;;;;13.03;100.00;96372.59;5098388;28;20076;-48
2022/11/01 01:13:56;;;;;;;31.42;13.82;;;;;;;13.63;100.00;96371.56;5093173;28;20092;-46
2022/11/01 01:16:26;;;;;;;29.63;13.43;;;;;;;13.76;100.00;96373.69;5097824;28;20094;-46
2022/11/01 01:18:54;;;;;;;23.65;13.40;;;;;;;13.91;100.00;96377.34;5095398;28;20090;-45
2022/11/01 01:21:23;;;;;;;28.50;13.55;;;;;;;13.92;100.00;96378.16;5112839;28;20079;-45
2022/11/01 01:23:53;;;;;;;19.67;12.75;;;;;;;13.90;100.00;96375.69;5108529;28;20086;-45
2022/11/01 01:26:22;;;;;;;29.00;13.73;;;;;;;13.65;100.00;96366.09;5088421;28;20043;-43
2022/11/01 01:28:53;;;;;;;16.63;13.13;;;;;;;13.71;100.00;96360.94;5075356;28;20097;-43
2022/11/01 01:31:22;;;;;;;17.00;12.35;;;;;;;12.86;100.00;96365.59;5098986;28;20082;-48
2022/11/01 01:33:51;;;;;;;25.42;13.05;;;;;;;13.00;100.00;96372.91;5113184;28;20071;-47
2022/11/01 01:36:20;;;;;;;51.57;14.30;;;;;;;13.35;100.00;96376.34;5113246;28;20079;-44
2022/11/01 01:38:51;;;;;;;66.32;16.08;;;;;;;13.57;100.00;96372.22;5113254;28;20492;-45
2022/11/01 01:44:38;;;;;;;28.75;13.20;;;;;;;14.05;100.00;96370.53;5113404;28;20083;-45
2022/11/01 01:47:07;;;;;;;25.70;13.73;;;;;;;13.32;100.00;96359.94;5112976;28;20086;-45
2022/11/01 01:49:36;;;;;;;25.83;12.88;;;;;;;13.33;100.00;96357.13;5112926;28;20673;-45
2022/11/01 01:52:10;;;;;;;26.33;13.32;;;;;;;12.69;100.00;96348.03;5112321;28;20514;-44
2022/11/01 01:54:38;;;;;;;17.38;11.50;;;;;;;13.21;100.00;96347.81;5112724;28;20079;-50
2022/11/01 01:57:07;;;;;;;14.38;11.95;;;;;;;13.51;100.00;96336.59;5103296;28;20098;-48
2022/11/01 01:59:37;;;;;;;35.55;12.35;;;;;;;13.48;100.00;96338.75;5095302;28;20082;-45
2022/11/01 02:02:05;;;;;;;31.83;11.68;;;;;;;13.48;100.00;96344.88;5099984;28;20072;-44
2022/11/01 02:04:40;;;;;;;12.07;10.20;;;;;;;13.52;100.00;96335.63;5104366;28;20076;-45
2022/11/01 02:07:08;;;;;;;12.85;11.48;;;;;;;13.44;100.00;96340.91;5092577;28;20064;-43
2022/11/01 02:09:37;;;;;;;13.20;10.77;;;;;;;13.87;100.00;96344.22;5092250;28;20083;-46
2022/11/01 02:12:06;;;;;;;11.82;10.60;;;;;;;13.55;100.00;96339.75;5082883;28;20063;-46
2022/11/01 02:14:35;;;;;;;11.85;10.65;;;;;;;13.27;100.00;96348.00;5092233;28;20098;-49
2022/11/01 02:17:09;;;;;;;13.57;10.70;;;;;;;13.05;100.00;96345.97;5092031;28;20571;-47
2022/11/01 02:19:56;;;;;;;14.60;9.95;;;;;;;12.18;100.00;96347.13;5105130;28;20083;-43
2022/11/01 02:22:33;;;;;;;22.48;11.77;;;;;;;12.38;100.00;96350.38;5097987;28;20064;-46
2022/11/01 02:25:23;;;;;;;53.10;14.60;;;;;;;12.97;100.00;96352.09;5092230;28;20083;-47
2022/11/01 02:28:02;;;;;;;23.38;13.18;;;;;;;13.44;100.00;96346.22;5092362;28;20087;-44
2022/11/01 02:30:38;;;;;;;17.75;12.30;;;;;;;13.64;100.00;96348.53;5092336;28;20079;-46
2022/11/01 02:33:14;;;;;;;17.35;12.65;;;;;;;12.77;100.00;96343.59;5092022;28;20088;-46
2022/11/01 02:35:51;;;;;;;16.35;11.68;;;;;;;12.25;100.00;96350.81;5092492;28;20062;-48
2022/11/01 02:38:25;;;;;;;16.90;11.98;;;;;;;11.97;100.00;96358.91;5073973;28;20089;-47
2022/11/01 02:41:00;;;;;;;17.50;11.65;;;;;;;13.00;100.00;96361.50;5092315;28;20068;-48
2022/11/01 02:43:33;;;;;;;15.30;11.35;;;;;;;11.44;100.00;96398.63;5094396;28;20072;-47
2022/11/01 02:46:59;;;;;;;17.27;9.32;;;;;;;12.17;100.00;96396.53;5092098;28;20460;-47
2022/11/01 02:48:53;;;;;;;19.25;10.57;;;;;;;12.61;100.00;96385.88;5097859;28;20104;-51
2022/11/01 02:51:23;;;;;;;65.22;11.73;;;;;;;12.70;100.00;96376.16;5091800;28;20491;-44
2022/11/01 02:53:51;;;;;;;15.95;11.10;;;;;;;12.83;100.00;96387.09;5111912;28;20513;-47
2022/11/01 02:56:21;;;;;;;17.40;11.32;;;;;;;13.13;100.00;96376.94;5111800;28;20116;-47
2022/11/01 02:58:51;;;;;;;20.65;11.15;;;;;;;12.79;100.00;96369.88;5111290;28;20541;-47
2022/11/01 03:01:23;;;;;;;15.17;11.00;;;;;;;12.50;100.00;96378.22;5111394;28;20083;-45
2022/11/01 03:03:56;;;;;;;11.25;10.13;;;;;;;12.23;100.00;96382.72;5109055;28;20083;-47
2022/11/01 03:06:28;;;;;;;24.13;11.60;;;;;;;12.44;100.00;96384.13;5090947;28;20078;-43
2022/11/01 03:08:58;;;;;;;18.08;12.40;;;;;;;11.97;100.00;96390.63;5111448;28;20089;-48
2022/11/01 03:11:33;;;;;;;18.50;10.35;;;;;;;12.05;100.00;96387.22;5111642;28;20074;-46
2022/11/01 03:14:07;;;;;;;13.88;11.63;;;;;;;12.12;100.00;96375.06;5091150;28;20075;-47
2022/11/01 03:16:37;;;;;;;28.83;11.88;;;;;;;11.98;100.00;96391.47;5102777;28;20538;-49
2022/11/01 03:19:31;;;;;;;17.25;12.20;;;;;;;12.91;100.00;96389.78;5091284;28;20086;-45
2022/11/01 03:22:05;;;;;;;15.55;11.75;;;;;;;12.94;100.00;96400.06;5090781;28;20087;-45
2022/11/01 03:24:35;;;;;;;14.95;10.80;;;;;;;12.99;100.00;96397.75;5090848;28;20076;-44
2022/11/01 03:27:06;;;;;;;40.15;11.95;;;;;;;12.89;100.00;96404.16;5091403;28;20071;-47
2022/11/01 03:29:36;;;;;;;38.03;11.10;;;;;;;12.74;100.00;96399.50;5092699;28;20086;-44
2022/11/01 03:32:05;;;;;;;26.30;10.75;;;;;;;12.33;100.00;96404.56;5091666;28;20453;-47
2022/11/01 03:34:36;;;;;;;15.32;11.38;;;;;;;11.81;100.00;96398.44;5111354;28;20083;-43
2022/11/01 03:37:10;;;;;;;68.65;14.35;;;;;;;11.33;100.00;96403.13;5111403;28;20063;-44
2022/11/01 03:39:42;;;;;;;36.85;13.38;;;;;;;12.14;100.00;96410.06;5111191;28;20094;-45
2022/11/01 03:42:14;;;;;;;27.30;12.80;;;;;;;12.51;100.00;96406.31;5110391;28;20083;-43
2022/11/01 03:44:45;;;;;;;17.10;12.05;;;;;;;12.43;100.00;96404.47;5111576;28;20067;-48
2022/11/01 03:47:13;;;;;;;;;;;;;;;12.91;100.00;96416.25;5108303;28;20095;-47
2022/11/01 03:49:42;;;;;;;26.73;11.45;;;;;;;12.93;100.00;96416.09;5090685;28;20632;-47
2022/11/01 03:52:11;;;;;;;20.93;12.50;;;;;;;12.89;100.00;96422.69;5090454;28;20516;-46
2022/11/01 03:54:39;;;;;;;56.70;12.88;;;;;;;12.55;100.00;96427.00;5094690;28;20071;-44
2022/11/01 03:57:08;;;;;;;36.17;12.43;;;;;;;12.51;100.00;96428.31;5110177;28;20489;-48
2022/11/01 03:59:36;;;;;;;27.63;11.75;;;;;;;12.31;100.00;96429.50;5110581;28;20094;-48
2022/11/01 04:02:05;;;;;;;28.60;11.30;;;;;;;12.48;100.00;96425.97;5108407;28;20071;-48
2022/11/01 04:04:33;;;;;;;16.00;10.38;;;;;;;12.32;100.00;96431.19;5097962;28;20075;-45
2022/11/01 04:07:03;;;;;;;12.40;10.02;;;;;;;12.44;100.00;96437.03;5109987;28;20071;-44
2022/11/01 04:09:31;;;;;;;12.55;10.30;;;;;;;12.41;100.00;96435.53;5090424;28;20094;-43
2022/11/01 04:12:00;;;;;;;13.73;10.20;;;;;;;12.57;100.00;96440.91;5098182;28;20086;-43
2022/11/01 04:22:48;;;;;;;11.52;10.27;;;;;;;11.72;100.00;96450.34;5089849;28;20543;-51
2022/11/01 04:25:17;;;;;;;15.50;11.25;;;;;;;11.92;100.00;96447.59;5089994;28;20090;-45
2022/11/01 04:27:45;;;;;;;14.85;10.30;;;;;;;12.44;100.00;96452.91;5089855;28;20074;-44
2022/11/01 04:30:13;;;;;;;12.80;10.95;;;;;;;12.44;100.00;96455.53;5089755;28;20078;-47
2022/11/01 04:32:43;;;;;;;13.38;10.38;;;;;;;12.24;100.00;96468.97;5089555;28;20095;-46
2022/11/01 04:35:11;;;;;;;18.20;11.02;;;;;;;11.67;100.00;96475.59;5092289;28;20086;-44
2022/11/01 04:37:39;;;;;;;19.67;11.60;;;;;;;11.51;100.00;96468.31;5089189;28;20078;-45
2022/11/01 04:40:11;;;;;;;32.25;12.60;;;;;;;11.05;100.00;96462.22;5089668;28;20080;-44
2022/11/01 04:42:40;;;;;;;28.23;12.40;;;;;;;10.78;100.00;96463.88;5093097;28;20071;-44
2022/11/01 04:45:10;;;;;;;22.92;12.23;;;;;;;11.55;100.00;96473.16;5106197;28;20075;-46
2022/11/01 04:47:38;;;;;;;19.38;12.35;;;;;;;11.53;100.00;96480.41;5089359;28;20075;-46
2022/11/01 04:50:07;;;;;;;21.02;10.90;;;;;;;11.91;100.00;96478.47;5089838;28;20071;-48
2022/11/01 04:52:35;;;;;;;24.45;10.88;;;;;;;11.68;100.00;96482.53;5089598;28;20070;-50
2022/11/01 04:55:04;;;;;;;18.10;11.45;;;;;;;11.63;100.00;96472.38;5089655;28;20087;-45
2022/11/01 04:57:39;;;;;;;14.50;11.40;;;;;;;11.61;100.00;96475.19;5089580;28;20071;-46
2022/11/01 05:00:10;;;;;;;15.65;11.40;;;;;;;10.92;100.00;96476.59;5089785;28;20067;-48
2022/11/01 05:02:39;;;;;;;15.70;12.02;;;;;;;10.54;100.00;96474.94;5089104;28;20048;-46
2022/11/01 05:05:09;;;;;;;16.23;11.52;;;;;;;10.60;100.00;96477.00;5102009;28;20075;-48
2022/11/01 05:07:38;;;;;;;15.15;11.85;;;;;;;11.52;100.00;96470.81;5107046;28;20419;-44
2022/11/01 05:10:07;;;;;;;37.42;12.27;;;;;;;11.89;100.00;96469.84;5095345;28;20071;-49
2022/11/01 05:12:36;;;;;;;37.85;11.82;;;;;;;11.87;100.00;96474.44;5088768;28;20876;-45
2022/11/01 05:15:07;;;;;;;30.02;12.15;;;;;;;11.95;100.00;96477.19;5089561;28;20083;-50
2022/11/01 05:17:36;;;;;;;44.47;12.25;;;;;;;11.35;100.00;96485.66;5088981;28;20086;-46
2022/11/01 05:20:05;;;;;;;29.83;10.88;;;;;;;11.26;100.00;96501.56;5089148;28;20087;-45
2022/11/01 05:22:33;;;;;;;30.05;12.85;;;;;;;11.12;100.00;96489.69;5088938;28;20486;-46
2022/11/01 05:25:01;;;;;;;33.72;11.55;;;;;;;11.43;100.00;96492.84;5089171;28;20087;-48
2022/11/01 05:27:30;;;;;;;26.38;11.60;;;;;;;10.87;100.00;96484.13;5089192;28;20096;-43
2022/11/01 05:29:58;;;;;;;17.40;11.43;;;;;;;10.95;100.00;96495.75;5070970;28;20064;-45
2022/11/01 05:32:28;;;;;;;24.38;11.23;;;;;;;11.55;100.00;96496.91;5107637;28;20079;-47
2022/11/01 05:34:56;;;;;;;13.00;9.83;;;;;;;11.50;100.00;96503.66;5109383;28;20094;-45
2022/11/01 05:37:24;;;;;;;12.68;9.73;;;;;;;11.72;100.00;96497.09;5109231;28;20091;-48
2022/11/01 05:39:55;;;;;;;;;;;;;;;12.15;100.00;96508.69;5089148;28;20084;-43
2022/11/01 05:42:23;;;;;;;11.68;9.18;;;;;;;11.55;100.00;96502.19;5089244;28;20039;-49
2022/11/01 05:44:51;;;;;;;10.43;9.32;;;;;;;12.24;100.00;96508.63;5089035;28;20545;-43
2022/11/01 05:47:20;;;;;;;11.77;8.50;;;;;;;12.35;100.00;96516.31;5088905;28;20087;-46
2022/11/01 05:49:49;;;;;;;10.70;9.15;;;;;;;12.01;100.00;96510.94;5088686;28;20083;-43
2022/11/01 05:52:18;;;;;;;10.43;8.57;;;;;;;11.92;100.00;96516.28;5070946;28;20075;-47
2022/11/01 05:54:46;;;;;;;9.43;8.45;;;;;;;12.31;100.00;96520.25;5088931;28;20102;-46
2022/11/01 05:57:14;;;;;;;8.35;7.47;;;;;;;12.65;100.00;96523.94;5092235;28;20052;-43
2022/11/01 05:59:42;;;;;;;8.77;7.88;;;;;;;12.70;100.00;96526.97;5103682;28;20083;-47
2022/11/01 06:02:11;;;;;;;8.93;8.02;;;;;;;12.43;100.00;96528.78;5092440;28;20067;-45
2022/11/01 06:04:39;;;;;;;8.82;7.85;;;;;;;12.71;100.00;96532.09;5103228;28;20540;-49
2022/11/01 06:07:09;;;;;;;8.73;7.82;;;;;;;12.91;100.00;96530.06;5107319;28;20476;-48
2022/11/01 06:09:37;;;;;;;9.97;8.63;;;;;;;12.66;100.00;96537.00;5097704;28;20066;-43
2022/11/01 06:12:06;;;;;;;9.00;7.55;;;;;;;12.46;100.00;96541.69;5089702;28;20496;-44
2022/11/01 06:14:34;;;;;;;10.20;7.97;;;;;;;12.31;100.00;96545.84;5097917;28;20088;-46
2022/11/01 06:17:03;;;;;;;8.68;7.88;;;;;;;12.42;100.00;96542.13;5092358;28;20084;-44
2022/11/01 06:19:31;;;;;;;9.05;8.13;;;;;;;12.75;100.00;96543.19;5091917;28;20099;-47
2022/11/01 06:21:59;;;;;;;8.65;7.70;;;;;;;12.92;100.00;96542.31;5092022;28;20465;-45
2022/11/01 06:24:30;;;;;;;8.95;7.90;;;;;;;12.93;100.00;96561.66;5092259;28;20080;-47
2022/11/01 06:26:59;;;;;;;10.05;7.93;;;;;;;13.15;100.00;96568.25;5092241;28;20094;-44
2022/11/01 06:29:27;;;;;;;9.35;8.38;;;;;;;13.17;100.00;96571.56;5091897;28;20080;-45
2022/11/01 06:31:55;;;;;;;10.80;8.35;;;;;;;13.03;100.00;96573.78;5091513;28;20090;-44
2022/11/01 06:34:24;;;;;;;10.07;8.30;;;;;;;12.27;100.00;96592.94;5091775;28;20075;-48
2022/11/01 06:36:52;;;;;;;9.65;8.10;;;;;;;12.50;100.00;96590.66;5092713;28;20084;-48
2022/11/01 06:39:20;;;;;;;8.63;7.72;;;;;;;12.01;100.00;96595.50;5096083;28;20071;-45
2022/11/01 06:41:50;;;;;;;8.90;7.93;;;;;;;12.89;100.00;96598.19;5099576;28;20086;-43
2022/11/01 06:44:19;;;;;;;9.80;8.45;;;;;;;12.94;100.00;96608.31;5100968;28;20115;-46
2022/11/01 06:46:47;;;;;;;9.32;8.32;;;;;;;12.65;100.00;96627.13;5091716;28;20102;-43
2022/11/01 06:49:16;;;;;;;9.63;8.13;;;;;;;12.11;100.00;96630.63;5091704;28;20098;-46
2022/11/01 06:51:46;;;;;;;11.05;8.48;;;;;;;12.23;100.00;96635.69;5091768;28;20087;-46
2022/11/01 06:54:15;;;;;;;9.98;8.60;;;;;;;12.44;100.00;96633.56;5101380;28;20071;-44
2022/11/01 06:56:46;;;;;;;9.63;8.63;;;;;;;12.89;100.00;96637.06;5111912;28;20087;-50
2022/11/01 06:59:16;;;;;;;10.20;9.10;;;;;;;13.16;100.00;96636.09;5110884;28;20075;-46
2022/11/01 07:01:44;;;;;;;12.40;8.98;;;;;;;12.84;100.00;96642.84;5102771;28;20075;-52
2022/11/01 07:04:13;;;;;;;9.88;8.88;;;;;;;13.64;100.00;96640.84;5102462;28;20079;-48
2022/11/01 07:06:41;;;;;;;12.18;8.90;;;;;;;13.96;100.00;96629.53;5091010;28;20092;-46
2022/11/01 07:09:10;;;;;;;12.55;8.85;;;;;;;13.58;100.00;96646.78;5090897;28;20064;-44
2022/11/01 07:11:38;;;;;;;10.90;8.40;;;;;;;14.30;100.00;96643.69;5102942;28;20106;-45
2022/11/01 07:14:07;;;;;;;15.30;9.13;;;;;;;14.60;100.00;96645.75;5085490;28;20079;-47
2022/11/01 07:16:37;;;;;;;11.75;9.00;;;;;;;14.91;100.00;96650.41;5091270;28;20166;-44
2022/11/01 07:19:06;;;;;;;;;;;;;;;15.26;100.00;96645.72;5092240;28;20063;-44
2022/11/01 07:21:34;;;;;;;11.07;8.60;;;;;;;15.26;100.00;96662.47;5090886;28;19952;-49
2022/11/01 07:24:02;;;;;;;10.10;8.48;;;;;;;14.71;100.00;96664.00;5093549;28;20090;-48
2022/11/01 07:26:30;;;;;;;11.13;8.50;;;;;;;14.70;100.00;96670.31;5090502;28;20534;-48
2022/11/01 07:28:59;;;;;;;10.25;7.72;;;;;;;14.72;100.00;96668.31;5091415;28;20104;-51
2022/11/01 07:31:27;;;;;;;9.93;8.30;;;;;;;15.38;100.00;96668.25;5090457;28;20076;-48
2022/11/01 07:33:57;;;;;;;12.93;8.38;;;;;;;15.98;100.00;96667.78;5095748;28;20083;-47
2022/11/01 07:36:25;;;;;;;10.47;8.67;;;;;;;15.70;100.00;96672.69;5110806;28;20087;-46
2022/11/01 07:38:53;;;;;;;15.25;11.52;;;;;;;16.36;100.00;96679.38;5092934;28;20504;-44
2022/11/01 07:41:22;;;;;;;16.70;13.55;;;;;;;16.43;100.00;96676.03;5110768;28;20098;-48
2022/11/01 07:43:50;;;;;;;14.52;11.32;;;;;;;16.25;100.00;96679.78;5111041;28;20066;-44
2022/11/01 07:46:19;;;;;;;14.45;10.18;;;;;;;16.61;100.00;96687.19;5110800;28;20078;-47
2022/11/01 07:48:47;;;;;;;16.38;10.43;;;;;;;16.63;100.00;96689.72;5090948;28;20109;-44
2022/11/01 07:51:17;;;;;;;13.95;8.65;;;;;;;16.94;100.00;96684.34;5090285;28;20079;-50
2022/11/01 07:53:45;;;;;;;12.60;7.82;;;;;;;17.05;100.00;96683.91;5090505;28;20642;-44
2022/11/01 07:56:13;;;;;;;13.82;9.27;;;;;;;17.06;100.00;96690.88;5104976;28;20071;-47
2022/11/01 07:58:42;;;;;;;13.65;9.60;;;;;;;17.35;100.00;96682.16;5100706;28;20078;-43
2022/11/01 08:01:11;;;;;;;12.32;8.10;;;;;;;17.69;100.00;96688.81;5089904;28;20099;-46
2022/11/01 08:03:39;;;;;;;14.50;8.20;;;;;;;17.86;100.00;96687.63;5089749;28;20056;-47
2022/11/01 08:06:08;;;;;;;13.77;9.15;;;;;;;17.73;100.00;96690.09;5110743;28;20075;-48
2022/11/01 08:08:38;;;;;;;12.48;8.35;;;;;;;18.12;100.00;96692.47;5110537;28;20087;-51
2022/11/01 08:11:06;;;;;;;13.57;9.15;;;;;;;18.55;100.00;96686.38;5097623;28;20509;-49
2022/11/01 08:13:35;;;;;;;12.98;8.80;;;;;;;18.91;100.00;96683.72;5110171;28;20075;-49
2022/11/01 08:16:03;;;;;;;10.23;7.97;;;;;;;19.38;100.00;96679.59;5089749;28;20094;-50
2022/11/01 08:18:32;;;;;;;9.50;7.10;;;;;;;18.15;100.00;96689.44;5090474;28;20091;-44
2022/11/01 08:21:00;;;;;;;10.63;6.53;;;;;;;18.28;100.00;96686.13;5089880;28;20075;-47
2022/11/01 08:23:28;;;;;;;9.55;6.10;;;;;;;18.42;100.00;96685.25;5090285;28;20080;-47
2022/11/01 08:25:58;;;;;;;12.23;6.60;;;;;;;18.81;100.00;96691.22;5089802;28;20086;-45
2022/11/01 08:28:29;;;;;;;7.93;6.17;;;;;;;18.84;100.00;96689.00;5089680;28;20083;-48
2022/11/01 08:30:57;;;;;;;;;;;;;;;19.12;100.00;96682.88;5109543;28;21054;-49
2022/11/01 08:33:25;;;;;;;13.88;5.88;;;;;;;18.87;100.00;96679.78;5106517;28;19951;-49
2022/11/01 08:35:53;;;;;;;11.65;5.90;;;;;;;18.79;100.00;96672.72;5091701;28;20091;-49
2022/11/01 08:38:22;;;;;;;12.90;6.60;;;;;;;19.35;100.00;96679.97;5104569;28;20083;-49
2022/11/01 08:40:50;;;;;;;10.52;5.30;;;;;;;19.36;100.00;96681.63;5092301;28;20483;-45
2022/11/01 08:43:20;;;;;;;9.23;5.65;;;;;;;19.42;100.00;96679.00;5095645;28;20087;-50
2022/11/01 08:45:49;;;;;;;10.27;6.00;;;;;;;19.71;100.00;96682.50;5109891;28;20079;-48
2022/11/01 08:48:17;;;;;;;8.00;5.30;;;;;;;19.50;100.00;96686.06;5109935;28;20082;-52
2022/11/01 08:50:45;;;;;;;7.57;5.45;;;;;;;19.01;100.00;96689.56;5109313;28;20075;-46
2022/11/01 08:53:14;;;;;;;8.65;5.90;;;;;;;19.47;100.00;96689.09;5108668;28;20083;-48
2022/11/01 08:55:42;;;;;;;12.18;6.20;;;;;;;19.66;100.00;96690.31;5101165;28;20079;-49
2022/11/01 08:58:11;;;;;;;13.32;6.13;;;;;;;19.75;100.00;96693.66;5110149;28;20087;-48
2022/11/01 09:00:41;;;;;;;8.50;5.68;;;;;;;19.80;100.00;96697.41;5094972;28;20075;-50
2022/11/01 09:03:09;;;;;;;11.52;6.05;;;;;;;19.67;100.00;96692.78;5089182;28;20522;-48
2022/11/01 09:05:37;;;;;;;17.52;6.28;;;;;;;19.86;100.00;96690.44;5089070;28;20087;-46
2022/11/01 09:08:06;;;;;;;14.65;6.18;;;;;;;19.95;100.00;96688.41;5089166;28;20669;-49
2022/11/01 09:10:34;;;;;;;12.45;6.07;;;;;;;19.74;100.00;96689.31;5092243;28;20472;-44
2022/11/01 09:13:03;;;;;;;13.45;6.28;;;;;;;20.25;100.00;96694.34;5109326;28;20090;-48
2022/11/01 09:15:32;;;;;;;12.88;6.00;;;;;;;20.28;100.00;96694.75;5097113;28;20553;-47
2022/11/01 09:18:06;;;;;;;11.60;5.55;;;;;;;20.41;100.00;96694.00;5089165;28;20111;-49
2022/11/01 09:20:34;;;;;;;9.80;5.85;;;;;;;20.51;100.00;96704.34;5088952;28;20672;-46
2022/11/01 09:23:03;;;;;;;15.48;6.28;;;;;;;20.78;100.00;96698.03;5089030;28;20181;-48
2022/11/01 09:25:32;;;;;;;12.40;6.20;;;;;;;21.18;100.00;96697.25;5101350;28;20086;-48
2022/11/01 09:28:00;;;;;;;12.57;5.57;;;;;;;20.83;100.00;96694.75;5109741;28;20087;-49
2022/11/01 09:30:29;;;;;;;9.70;5.78;;;;;;;21.37;100.00;96696.50;5110088;28;20071;-48
2022/11/01 09:32:57;;;;;;;10.90;5.43;;;;;;;21.53;100.00;96696.03;5113398;28;20083;-46
2022/11/01 09:35:28;;;;;;;11.52;5.65;;;;;;;21.62;100.00;96693.16;5109461;28;20090;-50
2022/11/01 09:37:57;;;;;;;9.13;5.03;;;;;;;20.95;100.00;96687.75;5113653;28;20083;-48
2022/11/01 09:40:27;;;;;;;10.98;5.75;;;;;;;21.86;100.00;96684.44;5102115;28;20099;-49
2022/11/01 09:42:56;;;;;;;12.18;5.22;;;;;;;21.58;100.00;96681.19;5092839;28;20087;-45
2022/11/01 09:45:31;;;;;;;11.82;5.60;;;;;;;21.84;100.00;96689.19;5092845;28;20082;-45
2022/11/01 09:48:01;;;;;;;9.93;5.45;;;;;;;21.28;100.00;96678.91;5109456;28;20515;-44
2022/11/01 09:50:33;;;;;;;;;;;;;;;21.69;100.00;96689.44;5104180;28;20075;-44
2022/11/01 09:53:03;;;;;;;10.15;4.93;;;;;;;22.05;100.00;96693.47;5113436;28;19977;-47
2022/11/01 09:55:39;;;;;;;10.85;5.03;;;;;;;22.24;100.00;96686.41;5102645;28;20604;-51
2022/11/01 09:58:17;;;;;;;9.45;5.20;;;;;;;22.58;100.00;96682.56;5092386;28;20106;-49
2022/11/01 10:00:52;;;;;;;14.85;5.57;;;;;;;22.69;100.00;96675.66;5092632;28;20088;-47
2022/11/01 10:03:33;;;;;;;9.43;5.32;;;;;;;23.36;100.00;96671.47;5092496;28;20083;-46
2022/11/01 10:06:08;;;;;;;14.25;5.50;;;;;;;23.10;100.00;96671.69;5098596;28;20091;-46
2022/11/01 10:08:49;;;;;;;10.02;5.65;;;;;;;23.60;100.00;96677.06;5092363;28;20075;-45
2022/11/01 10:11:31;;;;;;;14.98;5.80;;;;;;;23.49;100.00;96678.59;5101625;28;20071;-49
2022/11/01 10:14:07;;;;;;;7.47;5.15;;;;;;;23.85;100.00;96674.38;5112828;28;20076;-43
2022/11/01 10:16:37;;;;;;;12.75;6.00;;;;;;;23.93;100.00;96674.06;5094824;28;20088;-45
2022/11/01 10:19:11;;;;;;;17.92;6.57;;;;;;;23.86;100.00;96687.59;5092275;28;20091;-48
2022/11/01 10:21:43;;;;;;;11.60;5.95;;;;;;;23.77;100.00;96688.13;5110736;28;20087;-46
2022/11/01 10:24:18;;;;;;;11.65;5.90;;;;;;;23.69;100.00;96698.13;5112693;28;20079;-43
2022/11/01 10:26:50;;;;;;;18.85;5.90;;;;;;;22.91;100.00;96703.03;5112356;28;20086;-49
2022/11/01 10:29:23;;;;;;;8.75;5.35;;;;;;;22.95;100.00;96701.56;5109181;28;20078;-46
2022/11/01 10:31:53;;;;;;;11.90;5.53;;;;;;;23.67;100.00;96708.31;5092367;28;20072;-49
2022/11/01 10:34:24;;;;;;;11.48;5.00;;;;;;;22.58;100.00;96714.81;5106697;28;20075;-48
2022/11/01 10:37:01;;;;;;;11.90;5.65;;;;;;;24.19;100.00;96694.53;5107559;28;20079;-45
2022/11/01 10:39:33;;;;;;;9.70;5.05;;;;;;;23.64;100.00;96705.19;5112119;28;20071;-47
2022/11/01 10:42:22;;;;;;;10.95;4.85;;;;;;;23.62;100.00;96702.72;5090792;28;20067;-52
2022/11/01 10:44:54;;;;;;;10.95;5.32;;;;;;;23.52;100.00;96693.50;5096945;28;20059;-43
2022/11/01 10:47:24;;;;;;;10.98;4.93;;;;;;;23.80;100.00;96696.56;5100208;28;20082;-46
2022/11/01 10:49:55;;;;;;;9.05;4.88;;;;;;;23.65;100.00;96698.78;5110263;28;20117;-47
2022/11/01 10:52:47;;;;;;;11.00;4.50;;;;;;;22.71;100.00;96697.75;5073277;28;20114;-44
2022/11/01 10:55:19;;;;;;;9.45;4.50;;;;;;;23.36;100.00;96695.69;5092138;28;20802;-46
2022/11/01 10:57:51;;;;;;;8.23;4.35;;;;;;;23.25;100.00;96693.72;5092087;28;20064;-43
2022/11/01 11:00:22;;;;;;;9.50;4.13;;;;;;;23.56;100.00;96683.94;5091546;28;20082;-43
2022/11/01 11:02:54;;;;;;;10.25;4.40;;;;;;;23.05;100.00;96691.16;5091130;28;20071;-47
2022/11/01 11:05:23;;;;;;;10.00;3.92;;;;;;;23.03;100.00;96687.06;5100601;28;20431;-48
2022/11/01 11:07:53;;;;;;;12.27;4.10;;;;;;;23.30;100.00;96688.53;5091530;28;20534;-47
2022/11/01 11:10:23;;;;;;;9.40;4.07;;;;;;;24.01;100.00;96686.41;5074599;28;20064;-47
2022/11/01 11:12:56;;;;;;;11.23;4.25;;;;;;;23.69;100.00;96690.06;5111634;28;20086;-48
2022/11/01 11:15:37;;;;;;;10.07;4.20;;;;;;;24.17;97.39;96686.66;5106516;28;20478;-45
2022/11/01 11:18:10;;;;;;;8.35;3.90;;;;;;;23.28;100.00;96690.59;5091181;28;20498;-46
2022/11/01 11:20:39;;;;;;;7.75;3.88;;;;;;;23.27;100.00;96691.66;5097711;28;20083;-45
2022/11/01 11:23:11;;;;;;;7.95;3.90;;;;;;;23.71;100.00;96694.38;5111012;28;20072;-47
2022/11/01 11:25:41;;;;;;;6.20;3.70;;;;;;;23.27;100.00;96688.94;5111095;28;20080;-49
2022/11/01 11:28:22;;;;;;;7.07;3.75;;;;;;;22.72;100.00;96688.69;5111788;28;20071;-47
2022/11/01 11:30:51;;;;;;;13.43;4.10;;;;;;;23.42;100.00;96692.13;5110991;28;20079;-47
2022/11/01 11:33:19;;;;;;;7.00;3.45;;;;;;;23.30;100.00;96691.22;5110803;28;20086;-48
2022/11/01 11:35:58;;;;;;;7.05;3.90;;;;;;;23.59;100.00;96687.00;5104022;28;20079;-47
2022/11/01 11:38:44;;;;;;;9.45;3.50;;;;;;;23.02;100.00;96680.88;5090871;28;20111;-43
2022/11/01 11:41:26;;;;;;;6.25;3.10;;;;;;;23.43;100.00;96672.25;5098105;28;20090;-46
2022/11/01 11:43:55;;;;;;;8.13;3.33;;;;;;;23.51;100.00;96673.03;5097281;28;20086;-48